createdAt,value
2022-09-27T00:00:00.209Z,0
2022-09-27T00:05:00.183Z,0
2022-09-27T00:10:00.175Z,0
2022-09-27T00:15:00.165Z,0
2022-09-27T00:20:00.191Z,1
2022-09-27T00:25:00.173Z,1
2022-09-27T00:30:00.223Z,1
2022-09-27T00:35:00.168Z,0
2022-09-27T00:40:00.188Z,0
2022-09-27T00:45:00.169Z,0
2022-09-27T00:50:00.189Z,0
2022-09-27T00:55:00.154Z,0
2022-09-27T01:00:00.231Z,0
2022-09-27T01:05:00.151Z,2
2022-09-27T01:10:00.210Z,5
2022-09-27T01:15:00.188Z,3
2022-09-27T01:20:00.187Z,2
2022-09-27T01:25:00.145Z,2
2022-09-27T01:30:00.198Z,0
2022-09-27T01:35:00.178Z,1
2022-09-27T01:40:00.194Z,7
2022-09-27T01:45:00.160Z,9
2022-09-27T01:50:00.169Z,4
2022-09-27T01:55:00.173Z,1
2022-09-27T02:00:00.227Z,0
2022-09-27T02:05:00.154Z,0
2022-09-27T02:10:00.169Z,0
2022-09-27T02:15:00.190Z,0
2022-09-27T02:20:00.183Z,0
2022-09-27T02:25:00.195Z,0
2022-09-27T02:30:00.182Z,0
2022-09-27T02:35:00.210Z,0
2022-09-27T02:40:00.201Z,0
2022-09-27T02:45:00.180Z,0
2022-09-27T02:50:00.197Z,0
2022-09-27T02:55:00.190Z,0
2022-09-27T03:00:00.268Z,0
2022-09-27T03:05:00.183Z,0
2022-09-27T03:10:06.827Z,0
2022-09-27T03:15:00.263Z,0
2022-09-27T03:20:00.172Z,0
2022-09-27T03:25:00.184Z,0
2022-09-27T03:30:00.199Z,0
2022-09-27T03:35:00.173Z,0
2022-09-27T03:40:00.198Z,0
2022-09-27T03:45:00.172Z,0
2022-09-27T03:50:00.217Z,0
2022-09-27T03:55:02.275Z,0
2022-09-27T04:00:00.201Z,0
2022-09-27T04:05:00.180Z,0
2022-09-27T04:10:00.198Z,0
2022-09-27T04:15:00.202Z,0
2022-09-27T04:20:00.176Z,0
2022-09-27T04:25:00.186Z,0
2022-09-27T04:30:00.205Z,0
2022-09-27T04:35:00.179Z,0
2022-09-27T04:40:00.211Z,0
2022-09-27T04:45:00.171Z,0
2022-09-27T04:50:00.193Z,0
2022-09-27T04:55:00.178Z,0
2022-09-27T05:00:00.241Z,0
2022-09-27T05:05:00.197Z,0
2022-09-27T05:10:00.220Z,0
2022-09-27T05:15:00.234Z,0
2022-09-27T05:20:00.202Z,0
2022-09-27T05:25:00.189Z,0
2022-09-27T05:30:00.222Z,0
2022-09-27T05:35:01.690Z,0
2022-09-27T05:40:08.464Z,0
2022-09-27T05:45:00.470Z,0
2022-09-27T05:50:00.196Z,0
2022-09-27T05:55:00.214Z,0
2022-09-27T06:00:00.233Z,0
2022-09-27T06:05:00.193Z,0
2022-09-27T06:10:00.196Z,0
2022-09-27T06:15:00.223Z,0
2022-09-27T06:20:00.174Z,0
2022-09-27T06:25:00.216Z,0
2022-09-27T06:30:00.195Z,0
2022-09-27T06:35:00.217Z,0
2022-09-27T06:40:00.171Z,0
2022-09-27T06:50:00.207Z,0
2022-09-27T06:55:00.217Z,0
2022-09-27T07:00:00.225Z,0
2022-09-27T07:05:00.199Z,0
2022-09-27T07:10:00.224Z,0
2022-09-27T07:15:00.197Z,0
2022-09-27T07:20:00.194Z,0
2022-09-27T07:25:00.185Z,0
2022-09-27T07:30:00.193Z,0
2022-09-27T07:35:00.192Z,0
2022-09-27T07:40:00.216Z,0
2022-09-27T07:45:00.201Z,0
2022-09-27T07:50:00.203Z,0
2022-09-27T07:55:00.220Z,0
2022-09-27T08:00:00.238Z,0
2022-09-27T08:05:00.204Z,0
2022-09-27T08:10:00.213Z,0
2022-09-27T08:15:00.229Z,0
2022-09-27T08:20:00.219Z,0
2022-09-27T08:25:00.211Z,0
2022-09-27T08:30:00.200Z,0
2022-09-27T08:35:00.172Z,0
2022-09-27T08:40:00.228Z,0
2022-09-27T08:45:03.429Z,0
2022-09-27T08:50:00.197Z,0
2022-09-27T08:55:00.209Z,0
2022-09-27T09:00:00.243Z,0
2022-09-27T09:05:00.197Z,2
2022-09-27T09:10:00.211Z,2
2022-09-27T09:15:00.200Z,0
2022-09-27T09:20:00.320Z,0
2022-09-27T09:25:00.199Z,0
2022-09-27T09:30:00.194Z,0
2022-09-27T09:35:00.203Z,0
2022-09-27T09:40:00.234Z,0
2022-09-27T09:45:00.189Z,0
2022-09-27T09:50:00.207Z,0
2022-09-27T09:55:00.205Z,0
2022-09-27T10:00:00.238Z,0
2022-09-27T10:05:05.246Z,0
2022-09-27T10:10:00.232Z,0
2022-09-27T10:15:00.181Z,0
2022-09-27T10:20:00.206Z,0
2022-09-27T10:25:00.222Z,0
2022-09-27T10:30:00.220Z,0
2022-09-27T10:35:00.194Z,0
2022-09-27T10:40:00.215Z,0
2022-09-27T10:45:00.224Z,0
2022-09-27T10:50:00.197Z,0
2022-09-27T10:55:00.215Z,0
2022-09-27T11:00:00.250Z,0
2022-09-27T11:05:00.242Z,0
2022-09-27T11:10:00.190Z,0
2022-09-27T11:15:00.193Z,0
2022-09-27T11:20:00.200Z,0
2022-09-27T11:25:00.236Z,0
2022-09-27T11:30:00.200Z,0
2022-09-27T11:35:00.211Z,0
2022-09-27T11:40:00.191Z,1
2022-09-27T11:45:27.724Z,1
2022-09-27T11:50:00.225Z,0
2022-09-27T11:55:00.168Z,0
2022-09-27T12:00:00.253Z,0
2022-09-27T12:05:00.198Z,0
2022-09-27T12:10:00.199Z,0
2022-09-27T12:15:04.328Z,0
2022-09-27T12:20:00.181Z,0
2022-09-27T12:25:00.203Z,0
2022-09-27T12:30:00.195Z,0
2022-09-27T12:35:00.210Z,0
2022-09-27T12:40:00.186Z,0
2022-09-27T12:45:00.182Z,0
2022-09-27T12:50:01.827Z,0
2022-09-27T12:55:00.228Z,0
2022-09-27T13:00:00.246Z,0
2022-09-27T13:05:00.202Z,0
2022-09-27T13:10:00.205Z,0
2022-09-27T13:15:00.213Z,0
2022-09-27T13:20:00.189Z,0
2022-09-27T13:25:00.257Z,0
2022-09-27T13:30:00.221Z,0
2022-09-27T13:35:00.208Z,0
2022-09-27T13:40:00.197Z,0
2022-09-27T13:45:00.204Z,0
2022-09-27T13:50:00.195Z,0
2022-09-27T13:55:00.193Z,0
2022-09-27T14:00:00.278Z,0
2022-09-27T14:05:00.203Z,0
2022-09-27T14:10:00.225Z,0
2022-09-27T14:15:00.197Z,0
2022-09-27T14:20:00.233Z,0
2022-09-27T14:25:00.212Z,0
2022-09-27T14:30:00.188Z,0
2022-09-27T14:35:00.195Z,0
2022-09-27T14:40:00.238Z,0
2022-09-27T14:45:00.205Z,0
2022-09-27T14:50:00.224Z,0
2022-09-27T14:55:00.169Z,0
2022-09-27T15:00:00.295Z,0
2022-09-27T15:05:00.190Z,0
2022-09-27T15:10:00.191Z,0
2022-09-27T15:15:00.211Z,0
2022-09-27T15:20:00.228Z,0
2022-09-27T15:25:00.177Z,0
2022-09-27T15:30:00.225Z,0
2022-09-27T15:35:00.199Z,0
2022-09-27T15:40:00.188Z,0
2022-09-27T15:45:00.194Z,0
2022-09-27T15:50:00.207Z,0
2022-09-27T15:55:00.191Z,0
2022-09-27T16:00:00.213Z,0
2022-09-27T16:05:00.188Z,0
2022-09-27T16:10:00.190Z,0
2022-09-27T16:15:00.189Z,0
2022-09-27T16:20:00.216Z,0
2022-09-27T16:25:00.179Z,0
2022-09-27T16:30:00.225Z,0
2022-09-27T16:35:00.189Z,0
2022-09-27T16:40:00.205Z,0
2022-09-27T16:45:00.226Z,0
2022-09-27T16:50:00.209Z,0
2022-09-27T16:55:00.201Z,0
2022-09-27T17:00:00.239Z,0
2022-09-27T17:05:00.195Z,0
2022-09-27T17:10:00.236Z,0
2022-09-27T17:15:00.208Z,0
2022-09-27T17:20:00.164Z,0
2022-09-27T17:25:00.199Z,0
2022-09-27T17:30:00.215Z,0
2022-09-27T17:40:00.214Z,0
2022-09-27T17:45:00.219Z,0
2022-09-27T17:50:00.191Z,0
2022-09-27T17:55:00.225Z,0
2022-09-27T18:00:00.248Z,0
2022-09-27T18:05:00.184Z,0
2022-09-27T18:10:00.214Z,0
2022-09-27T18:15:00.178Z,0
2022-09-27T18:20:00.232Z,0
2022-09-27T18:25:00.204Z,0
2022-09-27T18:30:00.253Z,0
2022-09-27T18:35:00.191Z,0
2022-09-27T18:40:00.209Z,0
2022-09-27T18:45:00.185Z,0
2022-09-27T18:50:00.192Z,0
2022-09-27T18:55:00.173Z,0
2022-09-27T19:00:00.215Z,0
2022-09-27T19:05:00.216Z,0
2022-09-27T19:10:00.188Z,0
2022-09-27T19:15:00.183Z,0
2022-09-27T19:20:00.200Z,0
2022-09-27T19:25:00.147Z,0
2022-09-27T19:30:00.180Z,0
2022-09-27T19:35:00.182Z,0
2022-09-27T19:40:00.197Z,0
2022-09-27T19:45:00.193Z,0
2022-09-27T19:50:00.190Z,0
2022-09-27T19:55:00.189Z,0
2022-09-27T20:00:00.246Z,0
2022-09-27T20:05:00.216Z,0
2022-09-27T20:10:00.202Z,0
2022-09-27T20:15:00.182Z,0
2022-09-27T20:20:00.175Z,0
2022-09-27T20:25:00.195Z,0
2022-09-27T20:30:00.229Z,0
2022-09-27T20:35:00.164Z,0
2022-09-27T20:40:00.179Z,0
2022-09-27T20:45:00.275Z,0
2022-09-27T20:50:00.192Z,0
2022-09-27T20:55:00.173Z,0
2022-09-27T21:00:00.209Z,0
2022-09-27T21:05:00.185Z,0
2022-09-27T21:10:00.193Z,0
2022-09-27T21:15:00.192Z,0
2022-09-27T21:20:00.232Z,0
2022-09-27T21:25:00.194Z,0
2022-09-27T21:30:00.238Z,0
2022-09-27T21:35:00.181Z,0
2022-09-27T21:40:00.194Z,0
2022-09-27T21:45:00.184Z,0
2022-09-27T21:50:00.212Z,0
2022-09-27T21:55:00.199Z,0
2022-09-27T22:00:00.252Z,0
2022-09-27T22:05:00.180Z,0
2022-09-27T22:10:00.175Z,0
2022-09-27T22:15:00.169Z,0
2022-09-27T22:20:00.192Z,0
2022-09-27T22:25:00.179Z,0
2022-09-27T22:30:00.193Z,0
2022-09-27T22:35:00.179Z,0
2022-09-27T22:40:00.178Z,0
2022-09-27T22:45:00.177Z,0
2022-09-27T22:50:00.199Z,0
2022-09-27T22:55:00.204Z,0
2022-09-27T23:00:00.198Z,0
2022-09-27T23:05:00.171Z,0
2022-09-27T23:10:00.171Z,0
2022-09-27T23:15:00.173Z,0
2022-09-27T23:20:00.180Z,0
2022-09-27T23:25:00.184Z,0
2022-09-27T23:30:00.199Z,0
2022-09-27T23:35:00.205Z,0
2022-09-27T23:40:00.199Z,0
2022-09-27T23:45:00.186Z,0
2022-09-27T23:50:00.213Z,0
2022-09-27T23:55:00.163Z,0
